Currently 63°F in French Valley, California, USA
63°F
63°F / 63°F
calm
0.00"
Wednesday, September 26, 2018 12:31 AM PDT

French Valley, California Weather Summary
Last 36 Hours

Temperature Winds Hourly Humidity Dewpoint
Time Report Norm Report Norm Max Gusts Precip. Rpt. Norm Rpt. Norm Pressure
1,3Wed 12:31 AM  62.6°F  67°F  calm  1 mph  none  0.00"  91%  69%  60°F  56°F  30.02"
2Wed 12:01 AM  63.1°F  67°F  calm  1 mph  none  ----  91%  68%  60°F  56°F  30.02"
Wed 12:00 AM  63.1°F  67°F  calm  1 mph  3 mph  0.00"  91%  67%  60°F  56°F  30.02"
Tue 11:00 PM  64.1°F  68°F  calm  1 mph  4 mph  0.00"  89%  68%  61°F  57°F  30.02"
Tue 10:00 PM  66.3°F  69°F  1 mph SE  1 mph  4 mph  0.00"  84%  66%  61°F  57°F  30.00"
Tue 09:00 PM  68.1°F  71°F  calm  2 mph  5 mph  0.00"  80%  64%  61°F  58°F  29.99"
Tue 08:00 PM  69.4°F  73°F  3 mph SE  3 mph  7 mph  0.00"  78%  60%  62°F  58°F  29.97"
Tue 07:00 PM  72.2°F  76°F  5 mph SE  4 mph  9 mph  0.00"  72%  54%  62°F  57°F  29.95"
Tue 06:00 PM  76.4°F  80°F  5 mph S  6 mph  12 mph  0.00"  63%  45%  62°F  57°F  29.94"
Tue 05:00 PM  79.4°F  83°F  4 mph S  7 mph  13 mph  0.00"  57%  39%  63°F  55°F  29.93"
Tue 04:00 PM  81.5°F  85°F  4 mph S  7 mph  12 mph  0.00"  53%  35%  62°F  54°F  29.93"
Tue 03:00 PM  81.9°F  87°F  6 mph SW  6 mph  11 mph  0.00"  52%  33%  62°F  53°F  29.94"
Tue 02:00 PM  80.0°F  87°F  2 mph E  6 mph  10 mph  0.00"  54%  32%  61°F  52°F  29.97"
Tue 01:00 PM  76.1°F  86°F  2 mph NW  4 mph  11 mph  0.00"  62%  33%  62°F  52°F  29.99"
Tue 12:00 PM  73.0°F  84°F  1 mph E  4 mph  7 mph  0.00"  69%  36%  62°F  53°F  30.02"
Tue 11:00 AM  68.3°F  80°F  calm  3 mph  8 mph  0.00"  81%  42%  62°F  54°F  30.04"
Tue 10:00 AM  63.0°F  76°F  calm  2 mph  7 mph  0.00"  96%  51%  62°F  56°F  30.05"
Tue 09:00 AM  61.5°F  71°F  5 mph S  2 mph  7 mph  0.00"  98%  61%  61°F  56°F  30.03"
Tue 08:00 AM  60.5°F  65°F  4 mph S  1 mph  6 mph  0.00"  98%  69%  60°F  55°F  30.02"
Tue 07:00 AM  60.6°F  62°F  calm  1 mph  4 mph  0.00"  98%  73%  60°F  53°F  29.99"
Tue 06:00 AM  60.4°F  63°F  3 mph SE  1 mph  3 mph  0.00"  98%  73%  60°F  54°F  29.98"
Tue 05:00 AM  59.6°F  63°F  1 mph E  1 mph  3 mph  0.00"  98%  73%  59°F  54°F  29.97"
Tue 04:00 AM  59.5°F  64°F  calm  1 mph  2 mph  0.00"  98%  72%  59°F  54°F  29.96"
Tue 03:00 AM  60.5°F  65°F  1 mph NE  1 mph  2 mph  0.00"  97%  71%  60°F  55°F  29.96"
Tue 02:00 AM  61.4°F  65°F  1 mph NE  1 mph  2 mph  0.00"  97%  70%  60°F  55°F  29.97"
Tue 01:00 AM  60.4°F  66°F  calm  calm  2 mph  0.00"  96%  70%  59°F  56°F  29.98"
Tue 12:00 AM  60.9°F  67°F  calm  1 mph  none  0.00"  96%  68%  60°F  56°F  29.97"
Mon 11:00 PM  61.9°F  68°F  calm  1 mph  2 mph  0.00"  96%  69%  61°F  57°F  29.97"
Mon 10:00 PM  62.5°F  69°F  2 mph SE  1 mph  5 mph  0.00"  96%  66%  61°F  57°F  29.97"
Mon 09:00 PM  63.0°F  71°F  2 mph S  1 mph  8 mph  0.00"  95%  65%  62°F  58°F  29.96"
Mon 08:00 PM  63.6°F  73°F  6 mph SE  3 mph  11 mph  0.00"  94%  60%  62°F  58°F  29.95"
Mon 07:00 PM  66.2°F  76°F  6 mph S  4 mph  12 mph  0.00"  87%  54%  62°F  57°F  29.93"
Mon 06:00 PM  70.4°F  80°F  7 mph S  6 mph  12 mph  0.00"  78%  46%  63°F  57°F  29.91"
Mon 05:00 PM  74.1°F  83°F  7 mph S  7 mph  14 mph  0.00"  70%  40%  64°F  55°F  29.90"
Mon 04:00 PM  75.6°F  85°F  5 mph S  7 mph  14 mph  0.00"  68%  36%  64°F  54°F  29.89"
Mon 03:00 PM  76.1°F  87°F  8 mph SE  6 mph  14 mph  0.00"  65%  33%  63°F  53°F  29.91"
Mon 02:00 PM  75.5°F  87°F  6 mph SW  6 mph  14 mph  0.00"  67%  32%  64°F  53°F  29.93"
Mon 01:00 PM  73.1°F  86°F  5 mph SW  4 mph  12 mph  0.00"  72%  33%  63°F  52°F  29.96"
Mon 12:00 PM  70.5°F  84°F  6 mph S  4 mph  12 mph  0.00"  77%  35%  63°F  53°F  29.98"

  1. Current weather data. No green row appears if the current weather data is also the high or low for the current day.
  2. High temperature for the current day.
  3. Low temperature for the current day.

The French Valley, California weather pages are a service of WeatherCurrents. French Valley is located in southwestern Riverside County, California, north of Temecula, east of Murrieta, and south of Winchester. French Valley is bordered by Lake Skinner.
Copyright ©Wed Sep 26 00:32:16 PDT 2018  WeatherCurrents. All rights reserved. - Submit questions and comments - Privacy Policy

This page automatically refreshes every 10 minutes.